createdAt,value
2023-09-10T00:01:02.764Z,88.2
2023-09-10T00:02:17.057Z,88.2
2023-09-10T00:03:31.349Z,88.3
2023-09-10T00:04:45.642Z,88.3
2023-09-10T00:05:59.934Z,88.4
2023-09-10T00:07:14.227Z,88.5
2023-09-10T00:08:28.519Z,88.8
2023-09-10T00:09:42.811Z,89.1
2023-09-10T00:10:57.104Z,89.4
2023-09-10T00:12:11.396Z,89.4
2023-09-10T00:13:25.689Z,89
2023-09-10T00:14:39.981Z,88.4
2023-09-10T00:15:54.274Z,88.2
2023-09-10T00:17:07.582Z,87.8
2023-09-10T00:18:21.875Z,87.6
2023-09-10T00:19:36.167Z,87.4
2023-09-10T00:20:50.459Z,87.3
2023-09-10T00:22:04.752Z,87.2
2023-09-10T00:23:19.044Z,87.1
2023-09-10T00:24:33.337Z,86.8
2023-09-10T00:25:47.629Z,86.6
2023-09-10T00:27:01.922Z,86.4
2023-09-10T00:28:16.214Z,86.4
2023-09-10T00:29:30.506Z,86.3
2023-09-10T00:30:44.799Z,86.5
2023-09-10T00:31:59.091Z,86.4
2023-09-10T00:33:12.400Z,86.3
2023-09-10T00:34:26.692Z,86.2
2023-09-10T00:35:40.986Z,86.3
2023-09-10T00:36:55.278Z,85.9
2023-09-10T00:38:09.571Z,85.9
2023-09-10T00:39:23.863Z,85.9
2023-09-10T00:40:38.155Z,85.7
2023-09-10T00:41:52.448Z,85.6
2023-09-10T00:43:06.740Z,85.8
2023-09-10T00:44:21.032Z,85.8
2023-09-10T00:46:49.618Z,85.9
2023-09-10T00:48:03.910Z,85.9
2023-09-10T00:49:17.219Z,86.1
2023-09-10T00:50:31.511Z,86.4
2023-09-10T00:51:45.803Z,86.3
2023-09-10T00:53:00.096Z,86.4
2023-09-10T00:54:14.388Z,86.3
2023-09-10T00:55:28.681Z,86.5
2023-09-10T00:56:42.974Z,86.7
2023-09-10T00:57:57.267Z,86.9
2023-09-10T00:59:11.559Z,86.8
2023-09-10T01:00:25.851Z,86.7
2023-09-10T01:01:40.144Z,86.8
2023-09-10T01:02:54.436Z,86.8
2023-09-10T01:04:08.729Z,86.8
2023-09-10T01:05:22.037Z,86.8
2023-09-10T01:06:36.330Z,87
2023-09-10T01:09:04.915Z,87.3
2023-09-10T01:10:19.207Z,87.5
2023-09-10T01:11:33.500Z,87.3
2023-09-10T01:12:47.792Z,87.3
2023-09-10T01:14:02.084Z,87.2
2023-09-10T01:15:16.377Z,87.5
2023-09-10T01:16:30.669Z,87.8
2023-09-10T01:17:44.962Z,88.1
2023-09-10T01:18:59.254Z,88.1
2023-09-10T01:20:13.547Z,88.4
2023-09-10T01:21:26.855Z,88.6
2023-09-10T01:22:41.148Z,88.7
2023-09-10T01:23:55.440Z,89.6
2023-09-10T01:25:09.733Z,89.9
2023-09-10T01:26:24.025Z,90
2023-09-10T01:27:38.318Z,89.8
2023-09-10T01:28:52.610Z,89.7
2023-09-10T01:30:06.903Z,89.8
2023-09-10T01:31:21.195Z,89.8
2023-09-10T01:32:35.488Z,89.5
2023-09-10T01:33:49.780Z,89.4
2023-09-10T01:35:04.073Z,88.9
2023-09-10T01:36:18.366Z,88.3
2023-09-10T01:37:31.674Z,88
2023-09-10T01:38:45.967Z,87.5
2023-09-10T01:40:00.260Z,88
2023-09-10T01:41:14.552Z,88.1
2023-09-10T01:42:28.844Z,88.2
2023-09-10T01:43:43.137Z,88.5
2023-09-10T01:44:56.451Z,88.5
2023-09-10T01:46:10.743Z,88.3
2023-09-10T01:47:25.035Z,88.2
2023-09-10T01:48:39.328Z,88.5
2023-09-10T01:49:53.620Z,88.6
2023-09-10T01:51:07.913Z,88.4
2023-09-10T01:52:22.205Z,88.3
2023-09-10T01:53:36.498Z,88
2023-09-10T01:54:50.765Z,88.4
2023-09-10T01:56:05.083Z,88.5
2023-09-10T01:57:19.375Z,88.9
2023-09-10T01:58:33.667Z,89.1
2023-09-10T01:59:47.960Z,89.4
2023-09-10T02:01:01.268Z,89.2
2023-09-10T02:02:15.561Z,89.5
2023-09-10T02:03:29.854Z,89.6
2023-09-10T02:04:44.146Z,89.7
2023-09-10T02:05:58.438Z,89.4
2023-09-10T02:07:12.707Z,89.3
2023-09-10T02:08:27.023Z,89.1
2023-09-10T02:09:41.316Z,89.2
2023-09-10T02:10:55.608Z,89
2023-09-10T02:12:09.901Z,88.8
2023-09-10T02:13:24.193Z,88.7
2023-09-10T02:14:38.486Z,88.6
2023-09-10T02:15:52.778Z,88.4
2023-09-10T02:17:06.087Z,88.7
2023-09-10T02:18:20.379Z,88.7
2023-09-10T02:19:34.673Z,88.6
2023-09-10T02:20:48.965Z,88.8
2023-09-10T02:22:03.258Z,88.9
2023-09-10T02:23:17.550Z,89.1
2023-09-10T02:24:31.843Z,88.8
2023-09-10T02:25:46.135Z,88.6
2023-09-10T02:27:00.428Z,88.8
2023-09-10T02:28:14.720Z,88.8
2023-09-10T02:29:29.013Z,89.2
2023-09-10T02:30:43.305Z,89.2
2023-09-10T02:31:57.598Z,89.3
2023-09-10T02:33:10.906Z,89.6
2023-09-10T02:34:25.199Z,89.4
2023-09-10T02:35:39.492Z,89.3
2023-09-10T02:36:53.784Z,88.9
2023-09-10T02:38:08.077Z,89
2023-09-10T02:39:22.369Z,88.8
2023-09-10T02:40:36.661Z,88.9
2023-09-10T02:41:50.954Z,89.3
2023-09-10T02:43:05.246Z,89.4
2023-09-10T02:44:19.539Z,89.3
2023-09-10T02:45:33.832Z,89.2
2023-09-10T02:46:48.124Z,89.3
2023-09-10T02:48:02.417Z,89.1
2023-09-10T02:49:15.725Z,89.2
2023-09-10T02:50:30.018Z,89.2
2023-09-10T02:51:44.310Z,89.3
2023-09-10T02:52:58.603Z,89.3
2023-09-10T02:54:12.895Z,89.5
2023-09-10T02:55:27.188Z,89.5
2023-09-10T02:56:41.481Z,89.5
2023-09-10T02:57:55.773Z,89.5
2023-09-10T02:59:10.066Z,89.4
2023-09-10T03:00:24.358Z,89.2
2023-09-10T03:01:38.650Z,89.1
2023-09-10T03:02:52.943Z,89
2023-09-10T03:04:07.235Z,89
2023-09-10T03:05:20.544Z,88.8
2023-09-10T03:06:34.837Z,89.1
2023-09-10T03:07:49.129Z,89
2023-09-10T03:09:03.422Z,89
2023-09-10T03:10:17.714Z,89
2023-09-10T03:11:32.007Z,89
2023-09-10T03:12:46.299Z,88.9
2023-09-10T03:14:00.592Z,89.1
2023-09-10T03:15:14.884Z,88.8
2023-09-10T03:16:29.177Z,88.6
2023-09-10T03:17:43.470Z,88.6
2023-09-10T03:18:57.762Z,88.8
2023-09-10T03:20:12.054Z,88.7
2023-09-10T03:21:25.363Z,88.7
2023-09-10T03:22:39.656Z,88.9
2023-09-10T03:23:53.948Z,89
2023-09-10T03:25:08.241Z,88.9
2023-09-10T03:26:22.533Z,88.7
2023-09-10T03:27:36.826Z,88.7
2023-09-10T03:28:51.118Z,88.8
2023-09-10T03:30:05.411Z,88.8
2023-09-10T03:31:19.703Z,88.9
2023-09-10T03:32:33.996Z,89
2023-09-10T03:33:48.288Z,88.9
2023-09-10T03:35:02.581Z,88.9
2023-09-10T03:36:16.873Z,89
2023-09-10T03:37:30.182Z,88.9
2023-09-10T03:38:44.474Z,88.9
2023-09-10T03:39:58.767Z,88.9
2023-09-10T03:41:13.059Z,88.8
2023-09-10T03:42:27.352Z,88.8
2023-09-10T03:43:41.644Z,88.8
2023-09-10T03:44:55.937Z,88.9
2023-09-10T03:46:10.229Z,88.7
2023-09-10T03:47:24.522Z,88.8
2023-09-10T03:48:38.814Z,88.6
2023-09-10T03:49:53.107Z,88.6
2023-09-10T03:51:07.382Z,88.7
2023-09-10T03:52:21.692Z,88.5
2023-09-10T03:53:35.001Z,88.4
2023-09-10T03:54:49.240Z,88.3
2023-09-10T03:56:03.532Z,88.3
2023-09-10T03:57:17.825Z,88.5
2023-09-10T03:58:32.074Z,88.4
2023-09-10T03:59:46.313Z,88.6
2023-09-10T04:01:00.606Z,88.7
2023-09-10T04:02:14.899Z,88.9
2023-09-10T04:03:29.192Z,88.9
2023-09-10T04:04:43.441Z,88.9
2023-09-10T04:05:57.691Z,89
2023-09-10T04:07:11.929Z,88.9
2023-09-10T04:08:26.168Z,88.9
2023-09-10T04:09:39.422Z,88.9
2023-09-10T04:10:53.661Z,89
2023-09-10T04:12:07.900Z,89
2023-09-10T04:13:22.138Z,89
2023-09-10T04:14:36.377Z,88.9
2023-09-10T04:15:50.615Z,89
2023-09-10T04:17:04.854Z,89
2023-09-10T04:18:19.093Z,89
2023-09-10T04:19:33.332Z,89
2023-09-10T04:20:47.571Z,89
2023-09-10T04:22:01.809Z,89
2023-09-10T04:23:16.047Z,89.2
2023-09-10T04:24:30.286Z,89.1
2023-09-10T04:25:43.541Z,89.2
2023-09-10T04:26:57.779Z,89.5
2023-09-10T04:28:12.018Z,89.2
2023-09-10T04:29:26.256Z,89.2
2023-09-10T04:30:40.495Z,89.3
2023-09-10T04:31:54.733Z,89.2
2023-09-10T04:33:08.972Z,88.9
2023-09-10T04:34:23.210Z,88.9
2023-09-10T04:35:37.449Z,88.8
2023-09-10T04:36:51.687Z,88.7
2023-09-10T04:38:05.926Z,88.6
2023-09-10T04:39:20.164Z,88.7
2023-09-10T04:40:34.403Z,89
2023-09-10T04:41:47.658Z,88.8
2023-09-10T04:43:01.896Z,88.8
2023-09-10T04:44:16.135Z,88.8
2023-09-10T04:45:30.373Z,88.6
2023-09-10T04:46:44.612Z,88.5
2023-09-10T04:47:58.850Z,88.4
2023-09-10T04:49:13.089Z,88.3
2023-09-10T04:50:27.327Z,88.3
2023-09-10T04:51:41.566Z,88.4
2023-09-10T04:52:55.805Z,88.3
2023-09-10T04:54:10.043Z,88
2023-09-10T04:55:24.282Z,87.9
2023-09-10T04:56:38.520Z,87.2
2023-09-10T04:57:51.775Z,86.4
2023-09-10T04:59:06.013Z,85.7
2023-09-10T05:00:20.252Z,84.5
2023-09-10T05:01:34.490Z,83.6
2023-09-10T05:02:48.729Z,82.6
2023-09-10T05:04:02.968Z,81.6
2023-09-10T05:05:17.184Z,80.4
2023-09-10T05:06:31.444Z,79.6
2023-09-10T05:07:45.683Z,79.2
2023-09-10T05:08:59.921Z,78.9
2023-09-10T05:10:14.160Z,79
2023-09-10T05:11:28.398Z,78.9
2023-09-10T05:12:42.637Z,79.1
2023-09-10T05:13:55.891Z,78.7
2023-09-10T05:15:10.130Z,78.2
2023-09-10T05:16:24.369Z,78.1
2023-09-10T05:17:38.607Z,78.2
2023-09-10T05:18:52.845Z,77.9
2023-09-10T05:20:07.084Z,77.4
2023-09-10T05:21:21.322Z,76.5
2023-09-10T05:22:35.561Z,76
2023-09-10T05:23:49.799Z,76.1
2023-09-10T05:25:04.038Z,75.8
2023-09-10T05:26:18.276Z,76.4
2023-09-10T05:27:32.515Z,76.7
2023-09-10T05:28:46.753Z,76.9
2023-09-10T05:30:00.008Z,77.4
2023-09-10T05:31:14.246Z,77.5
2023-09-10T05:32:28.485Z,77.6
2023-09-10T05:33:42.723Z,77.4
2023-09-10T05:34:56.962Z,77.3
2023-09-10T05:36:11.200Z,77.5
2023-09-10T05:37:25.439Z,77.7
2023-09-10T05:38:39.677Z,77.8
2023-09-10T05:39:53.900Z,77.3
2023-09-10T05:41:08.154Z,76.5
2023-09-10T05:42:22.392Z,76.1
2023-09-10T05:43:36.631Z,74.9
2023-09-10T05:44:50.869Z,73.2
2023-09-10T05:46:04.124Z,71.4
2023-09-10T05:47:18.362Z,69.5
2023-09-10T05:48:32.601Z,68.2
2023-09-10T05:49:46.839Z,67.3
2023-09-10T05:51:01.078Z,66.4
2023-09-10T05:52:15.316Z,65.4
2023-09-10T05:53:28.576Z,65.2
2023-09-10T05:54:42.814Z,65.1
2023-09-10T05:55:57.052Z,64.5
2023-09-10T05:57:11.291Z,64
2023-09-10T05:58:25.530Z,63.7
2023-09-10T05:59:39.769Z,63.7
2023-09-10T06:00:54.007Z,63
2023-09-10T06:02:08.246Z,62.8
2023-09-10T06:03:22.484Z,62.6
2023-09-10T06:04:36.722Z,62.6
2023-09-10T06:05:50.961Z,61.9
2023-09-10T06:07:05.199Z,61.7
2023-09-10T06:08:19.438Z,60.8
2023-09-10T06:09:32.692Z,61.5
2023-09-10T06:10:46.931Z,61.4
2023-09-10T06:12:01.169Z,61.1
2023-09-10T06:13:15.408Z,61.1
2023-09-10T06:14:29.646Z,60.9
2023-09-10T06:15:43.884Z,60.3
2023-09-10T06:16:58.123Z,60.9
2023-09-10T06:18:12.361Z,60.5
2023-09-10T06:19:26.600Z,61.8
2023-09-10T06:20:40.838Z,61
2023-09-10T06:21:55.077Z,61.5
2023-09-10T06:23:09.315Z,61.5
2023-09-10T06:24:23.554Z,61.4
2023-09-10T06:25:36.808Z,61.4
2023-09-10T06:26:51.047Z,61.4
2023-09-10T06:28:05.285Z,61.1
2023-09-10T06:29:19.523Z,61.9
2023-09-10T06:30:33.762Z,61.6
2023-09-10T06:31:48.001Z,61.9
2023-09-10T06:33:02.239Z,62.4
2023-09-10T06:34:16.478Z,63
2023-09-10T06:35:30.716Z,62.7
2023-09-10T06:36:44.954Z,63.8
2023-09-10T06:37:59.193Z,63.3
2023-09-10T06:39:13.431Z,63.2
2023-09-10T06:40:27.670Z,64.4
2023-09-10T06:41:40.925Z,64.1
2023-09-10T06:42:55.163Z,63.7
2023-09-10T06:44:09.402Z,63.9
2023-09-10T06:45:23.640Z,63.5
2023-09-10T06:46:37.878Z,64.3
2023-09-10T06:47:52.117Z,64.8
2023-09-10T06:49:06.355Z,65.7
2023-09-10T06:50:20.594Z,65.5
2023-09-10T06:51:34.832Z,65.7
2023-09-10T06:52:49.071Z,66
2023-09-10T06:54:03.309Z,66.3
2023-09-10T06:55:17.548Z,65.5
2023-09-10T06:56:31.786Z,65.5
2023-09-10T06:57:45.041Z,65.6
2023-09-10T06:58:59.279Z,65.5
2023-09-10T07:00:13.489Z,65.7
2023-09-10T07:01:27.756Z,65.5
2023-09-10T07:02:41.995Z,65.7
2023-09-10T07:03:56.233Z,65.4
2023-09-10T07:05:10.471Z,65.7
2023-09-10T07:06:24.710Z,65.3
2023-09-10T07:07:38.948Z,64.8
2023-09-10T07:08:53.187Z,64.7
2023-09-10T07:10:07.425Z,63.8
2023-09-10T07:11:21.664Z,64.3
2023-09-10T07:12:35.902Z,63.9
2023-09-10T07:13:49.157Z,63.8
2023-09-10T07:15:03.395Z,63.9
2023-09-10T07:16:17.634Z,63.7
2023-09-10T07:17:31.872Z,63.5
2023-09-10T07:18:46.080Z,63.5
2023-09-10T07:20:00.349Z,63.4
2023-09-10T07:21:14.587Z,64
2023-09-10T07:22:28.826Z,64
2023-09-10T07:23:43.065Z,64
2023-09-10T07:24:57.303Z,64.2
2023-09-10T07:26:11.542Z,64.5
2023-09-10T07:27:25.780Z,64
2023-09-10T07:28:40.018Z,63.9
2023-09-10T07:29:53.273Z,64.2
2023-09-10T07:31:07.511Z,63.9
2023-09-10T07:32:21.750Z,63.9
2023-09-10T07:33:35.988Z,63.3
2023-09-10T07:34:50.227Z,63
2023-09-10T07:36:04.465Z,62.8
2023-09-10T07:37:18.704Z,62.7
2023-09-10T07:38:32.942Z,62.4
2023-09-10T07:39:47.181Z,62.4
2023-09-10T07:41:01.419Z,63.8
2023-09-10T07:42:15.658Z,62.8
2023-09-10T07:43:29.896Z,62
2023-09-10T07:44:44.135Z,61.3
2023-09-10T07:45:57.389Z,61.7
2023-09-10T07:47:11.628Z,61.8
2023-09-10T07:48:25.866Z,60.3
2023-09-10T07:49:40.105Z,60.4
2023-09-10T07:50:54.343Z,60.5
2023-09-10T07:52:08.582Z,60.2
2023-09-10T07:53:22.820Z,59.1
2023-09-10T07:54:37.058Z,59.4
2023-09-10T07:55:51.297Z,58.5
2023-09-10T07:57:05.536Z,59.1
2023-09-10T07:58:19.774Z,59.1
2023-09-10T07:59:34.012Z,59.1
2023-09-10T08:00:48.251Z,59
2023-09-10T08:02:01.505Z,59
2023-09-10T08:03:15.744Z,58.4
2023-09-10T08:04:29.982Z,58.3
2023-09-10T08:05:44.221Z,58.9
2023-09-10T08:06:58.460Z,57.8
2023-09-10T08:08:12.698Z,58.2
2023-09-10T08:09:26.936Z,57.8
2023-09-10T08:10:41.175Z,57.9
2023-09-10T08:11:55.413Z,57.5
2023-09-10T08:13:09.652Z,57.4
2023-09-10T08:14:23.890Z,56.7
2023-09-10T08:15:38.129Z,56.6
2023-09-10T08:16:52.367Z,56.6
2023-09-10T08:18:05.622Z,55.7
2023-09-10T08:19:19.861Z,56.7
2023-09-10T08:20:34.099Z,56.4
2023-09-10T08:21:48.337Z,56.3
2023-09-10T08:23:02.576Z,56.9
2023-09-10T08:24:16.814Z,57.1
2023-09-10T08:25:31.053Z,56.4
2023-09-10T08:26:45.291Z,56.6
2023-09-10T08:27:59.530Z,57.4
2023-09-10T08:29:13.768Z,55.4
2023-09-10T08:30:28.007Z,56.1
2023-09-10T08:31:42.245Z,56.8
2023-09-10T08:32:56.484Z,56.8
2023-09-10T08:34:09.738Z,56.9
2023-09-10T08:35:23.977Z,55.8
2023-09-10T08:36:38.215Z,56.1
2023-09-10T08:37:52.454Z,55.5
2023-09-10T08:39:06.693Z,55.1
2023-09-10T08:40:20.931Z,56
2023-09-10T08:41:35.169Z,55.4
2023-09-10T08:42:49.408Z,55.7
2023-09-10T08:44:03.646Z,56.3
2023-09-10T08:45:17.885Z,56.1
2023-09-10T08:46:32.123Z,56.1
2023-09-10T08:47:46.362Z,56.1
2023-09-10T08:49:00.601Z,55.6
2023-09-10T08:50:13.855Z,55.4
2023-09-10T08:51:28.094Z,55.3
2023-09-10T08:52:42.332Z,54.8
2023-09-10T08:53:56.571Z,54.5
2023-09-10T08:55:10.809Z,55.3
2023-09-10T08:56:25.048Z,54.1
2023-09-10T08:57:39.286Z,54.8
2023-09-10T08:58:53.525Z,54.8
2023-09-10T09:00:07.764Z,54.1
2023-09-10T09:01:22.002Z,55
2023-09-10T09:02:36.241Z,53.5
2023-09-10T09:03:50.479Z,53.7
2023-09-10T09:05:04.717Z,53.1
2023-09-10T09:06:17.972Z,52.1
2023-09-10T09:07:32.211Z,51.7
2023-09-10T09:08:46.449Z,52.5
2023-09-10T09:10:00.687Z,51.4
2023-09-10T09:11:14.926Z,52.2
2023-09-10T09:12:29.165Z,51.4
2023-09-10T09:13:43.403Z,51.4
2023-09-10T09:14:57.642Z,51.6
2023-09-10T09:16:11.880Z,52.5
2023-09-10T09:17:26.119Z,51.7
2023-09-10T09:18:40.357Z,52.9
2023-09-10T09:19:54.596Z,52
2023-09-10T09:21:08.834Z,52.1
2023-09-10T09:22:22.089Z,52.2
2023-09-10T09:23:36.327Z,52.2
2023-09-10T09:24:50.545Z,51.2
2023-09-10T09:26:04.805Z,51.2
2023-09-10T09:27:19.043Z,51.1
2023-09-10T09:28:33.281Z,51.3
2023-09-10T09:29:47.520Z,50.5
2023-09-10T09:31:01.758Z,51.1
2023-09-10T09:32:15.997Z,51.8
2023-09-10T09:33:30.237Z,50.5
2023-09-10T09:34:44.475Z,50.1
2023-09-10T09:35:58.699Z,49.7
2023-09-10T09:37:12.952Z,50.6
2023-09-10T09:38:26.207Z,50.4
2023-09-10T09:39:40.445Z,50.1
2023-09-10T09:40:54.684Z,49.8
2023-09-10T09:42:08.922Z,50
2023-09-10T09:43:23.161Z,49.9
2023-09-10T09:44:37.400Z,49.6
2023-09-10T09:45:51.638Z,48.9
2023-09-10T09:47:05.877Z,49.5
2023-09-10T09:48:20.115Z,50.2
2023-09-10T09:49:34.354Z,50.4
2023-09-10T09:50:48.592Z,50.4
2023-09-10T09:52:02.831Z,49.7
2023-09-10T09:53:17.070Z,49.5
2023-09-10T09:54:30.324Z,48.5
2023-09-10T09:55:44.563Z,48.2
2023-09-10T09:56:58.801Z,48.6
2023-09-10T09:58:13.040Z,48.4
2023-09-10T09:59:27.278Z,48.6
2023-09-10T10:00:41.517Z,48.5
2023-09-10T10:01:54.777Z,48.2
2023-09-10T10:03:09.015Z,48.5
2023-09-10T10:04:23.254Z,47.9
2023-09-10T10:05:37.493Z,48.2
2023-09-10T10:06:51.732Z,49.5
2023-09-10T10:08:05.971Z,48.5
2023-09-10T10:09:20.209Z,48.6
2023-09-10T10:10:34.448Z,47.9
2023-09-10T10:11:48.686Z,48.5
2023-09-10T10:13:02.925Z,47.4
2023-09-10T10:14:17.163Z,47.6
2023-09-10T10:15:31.402Z,48.5
2023-09-10T10:16:45.616Z,48.8
2023-09-10T10:17:58.895Z,48.5
2023-09-10T10:19:13.134Z,48.8
2023-09-10T10:20:27.372Z,48.4
2023-09-10T10:21:41.611Z,48.8
2023-09-10T10:22:55.849Z,48.8
2023-09-10T10:24:10.088Z,47.1
2023-09-10T10:25:24.326Z,46.1
2023-09-10T10:26:38.565Z,47.7
2023-09-10T10:27:52.804Z,47.1
2023-09-10T10:29:07.042Z,47.8
2023-09-10T10:30:21.281Z,47.5
2023-09-10T10:31:35.519Z,46.8
2023-09-10T10:32:49.758Z,47.3
2023-09-10T10:34:03.013Z,47
2023-09-10T10:35:17.251Z,47.1
2023-09-10T10:36:31.490Z,46.5
2023-09-10T10:37:45.729Z,47.5
2023-09-10T10:38:59.940Z,47
2023-09-10T10:40:14.207Z,46.5
2023-09-10T10:41:28.445Z,44.8
2023-09-10T10:42:42.684Z,45.5
2023-09-10T10:43:56.922Z,45.5
2023-09-10T10:45:11.161Z,46.1
2023-09-10T10:46:25.399Z,46.7
2023-09-10T10:47:39.638Z,45.8
2023-09-10T10:48:53.877Z,45.5
2023-09-10T10:50:07.131Z,45.5
2023-09-10T10:51:21.370Z,45.5
2023-09-10T10:52:35.609Z,44.8
2023-09-10T10:53:49.847Z,45.8
2023-09-10T10:55:04.086Z,45.2
2023-09-10T10:56:18.324Z,44.9
2023-09-10T10:57:32.563Z,44.4
2023-09-10T10:58:46.802Z,45
2023-09-10T11:00:01.040Z,44.1
2023-09-10T11:01:15.279Z,43.9
2023-09-10T11:02:29.517Z,44
2023-09-10T11:03:43.756Z,44.5
2023-09-10T11:04:57.994Z,45.4
2023-09-10T11:06:11.249Z,43.6
2023-09-10T11:07:25.487Z,44.3
2023-09-10T11:08:39.726Z,44.8
2023-09-10T11:09:53.965Z,44.3
2023-09-10T11:11:08.203Z,44.3
2023-09-10T11:12:22.442Z,43.5
2023-09-10T11:13:36.680Z,43.6
2023-09-10T11:14:50.920Z,42.3
2023-09-10T11:16:05.140Z,42.4
2023-09-10T11:17:19.397Z,43.6
2023-09-10T11:18:33.635Z,44.1
2023-09-10T11:19:47.874Z,43.8
2023-09-10T11:21:02.113Z,44.2
2023-09-10T11:22:15.367Z,44.5
2023-09-10T11:23:29.606Z,44.4
2023-09-10T11:24:43.844Z,45
2023-09-10T11:25:58.083Z,45.4
2023-09-10T11:27:12.321Z,44.8
2023-09-10T11:28:26.560Z,44
2023-09-10T11:29:40.798Z,44.4
2023-09-10T11:30:55.037Z,44.5
2023-09-10T11:32:09.275Z,43.8
2023-09-10T11:33:23.514Z,43.9
2023-09-10T11:34:37.752Z,43.2
2023-09-10T11:35:51.991Z,42.8
2023-09-10T11:37:06.229Z,42.3
2023-09-10T11:38:19.484Z,41.5
2023-09-10T11:39:33.723Z,41.9
2023-09-10T11:40:47.961Z,40.8
2023-09-10T11:42:02.200Z,41.7
2023-09-10T11:43:16.438Z,41.8
2023-09-10T11:44:30.677Z,42.3
2023-09-10T11:45:44.915Z,43.3
2023-09-10T11:46:59.154Z,42.5
2023-09-10T11:48:13.392Z,42
2023-09-10T11:49:27.631Z,42.1
2023-09-10T11:50:41.869Z,42.2
2023-09-10T11:51:56.108Z,42.8
2023-09-10T11:53:10.346Z,41.9
2023-09-10T11:54:23.601Z,42.7
2023-09-10T11:55:37.839Z,41.7
2023-09-10T11:56:52.078Z,43.2
2023-09-10T11:58:06.316Z,41.9
2023-09-10T11:59:20.555Z,43
2023-09-10T12:00:34.793Z,41.6
2023-09-10T12:01:49.032Z,41.4
2023-09-10T12:03:03.271Z,40.9
2023-09-10T12:04:17.509Z,40.5
2023-09-10T12:05:31.748Z,40.2
2023-09-10T12:06:45.986Z,41.7
2023-09-10T12:08:00.225Z,43.7
2023-09-10T12:09:14.463Z,44
2023-09-10T12:10:27.718Z,43.8
2023-09-10T12:11:41.956Z,44
2023-09-10T12:12:56.195Z,42
2023-09-10T12:14:10.434Z,42
2023-09-10T12:15:24.672Z,40.8
2023-09-10T12:16:38.910Z,41.6
2023-09-10T12:17:53.149Z,42.6
2023-09-10T12:19:07.388Z,43
2023-09-10T12:20:21.627Z,42.8
2023-09-10T12:21:35.865Z,41.5
2023-09-10T12:22:50.104Z,42.5
2023-09-10T12:24:04.342Z,43.3
2023-09-10T12:25:18.581Z,42.9
2023-09-10T12:26:31.836Z,43.3
2023-09-10T12:27:46.074Z,42.8
2023-09-10T12:29:00.313Z,42.5
2023-09-10T12:30:14.551Z,43.1
2023-09-10T12:31:28.790Z,42.7
2023-09-10T12:32:43.028Z,42
2023-09-10T12:33:57.267Z,42.2
2023-09-10T12:35:11.506Z,42.6
2023-09-10T12:36:25.744Z,42.4
2023-09-10T12:37:39.983Z,41.9
2023-09-10T12:38:54.221Z,41.3
2023-09-10T12:40:08.460Z,42.5
2023-09-10T12:41:22.698Z,43.4
2023-09-10T12:42:35.953Z,42.8
2023-09-10T12:43:50.191Z,42.9
2023-09-10T12:45:04.430Z,42.8
2023-09-10T12:46:18.669Z,42.9
2023-09-10T12:47:32.907Z,44
2023-09-10T12:48:47.145Z,43.2
2023-09-10T12:50:01.384Z,42.4
2023-09-10T12:51:15.622Z,43.5
2023-09-10T12:52:29.861Z,42.7
2023-09-10T12:53:44.099Z,42.9
2023-09-10T12:54:58.339Z,42.4
2023-09-10T12:56:12.577Z,41.5
2023-09-10T12:57:26.816Z,42.7
2023-09-10T12:58:40.071Z,41.4
2023-09-10T12:59:54.310Z,42.5
2023-09-10T13:01:08.548Z,42
2023-09-10T13:02:22.787Z,42.3
2023-09-10T13:03:37.027Z,42.5
2023-09-10T13:04:51.265Z,43.3
2023-09-10T13:06:05.504Z,43
2023-09-10T13:07:19.742Z,41.2
2023-09-10T13:08:33.981Z,40.6
2023-09-10T13:09:48.219Z,40.5
2023-09-10T13:11:02.458Z,40
2023-09-10T13:12:16.696Z,40.2
2023-09-10T13:13:30.935Z,40.6
2023-09-10T13:14:44.190Z,41.6
2023-09-10T13:15:58.428Z,42.3
2023-09-10T13:17:12.667Z,41.3
2023-09-10T13:18:26.905Z,41.8
2023-09-10T13:19:41.144Z,43.2
2023-09-10T13:20:55.382Z,42.9
2023-09-10T13:22:09.621Z,43.2
2023-09-10T13:23:23.859Z,43.1
2023-09-10T13:24:38.098Z,43.9
2023-09-10T13:25:52.336Z,43.3
2023-09-10T13:27:06.575Z,43.8
2023-09-10T13:28:20.814Z,43.3
2023-09-10T13:29:35.052Z,42.7
2023-09-10T13:30:48.307Z,43.3
2023-09-10T13:32:02.546Z,42.9
2023-09-10T13:33:16.784Z,43.7
2023-09-10T13:34:31.023Z,41.7
2023-09-10T13:35:45.261Z,42.3
2023-09-10T13:36:59.500Z,41.9
2023-09-10T13:38:13.738Z,42.1
2023-09-10T13:39:27.977Z,42.4
2023-09-10T13:40:42.216Z,43
2023-09-10T13:41:56.454Z,43.1
2023-09-10T13:43:10.693Z,41.8
2023-09-10T13:44:24.931Z,42.3
2023-09-10T13:45:39.170Z,42.2
2023-09-10T13:46:52.424Z,41.3
2023-09-10T13:48:06.663Z,42.4
2023-09-10T13:49:20.901Z,41.1
2023-09-10T13:50:35.140Z,41.5
2023-09-10T13:51:49.379Z,40.7
2023-09-10T13:53:03.617Z,40.7
2023-09-10T13:54:17.856Z,41.4
2023-09-10T13:55:32.094Z,41.3
2023-09-10T13:56:46.333Z,41.1
2023-09-10T13:58:00.571Z,41.4
2023-09-10T13:59:14.810Z,41.2
2023-09-10T14:00:29.049Z,41.5
2023-09-10T14:01:43.287Z,41.2
2023-09-10T14:02:56.542Z,41.5
2023-09-10T14:04:10.781Z,41.5
2023-09-10T14:05:25.019Z,42.1
2023-09-10T14:06:39.258Z,42
2023-09-10T14:07:53.496Z,42
2023-09-10T14:09:07.735Z,42.7
2023-09-10T14:10:20.995Z,41.9
2023-09-10T14:11:35.233Z,41.7
2023-09-10T14:12:49.472Z,42
2023-09-10T14:14:03.710Z,42.4
2023-09-10T14:15:17.949Z,42.5
2023-09-10T14:16:32.167Z,43.4
2023-09-10T14:17:46.426Z,43.4
2023-09-10T14:19:00.664Z,43.6
2023-09-10T14:20:14.903Z,43
2023-09-10T14:21:29.141Z,43.1
2023-09-10T14:22:43.380Z,42.8
2023-09-10T14:23:57.618Z,42.4
2023-09-10T14:25:11.857Z,43.2
2023-09-10T14:26:25.111Z,42.2
2023-09-10T14:27:39.350Z,43.1
2023-09-10T14:28:53.588Z,43.6
2023-09-10T14:30:07.827Z,42
2023-09-10T14:31:22.065Z,42.2
2023-09-10T14:32:36.304Z,42.8
2023-09-10T14:33:50.542Z,42.9
2023-09-10T14:35:04.781Z,43.1
2023-09-10T14:36:19.019Z,43.4
2023-09-10T14:37:33.258Z,42.3
2023-09-10T14:38:47.497Z,42.2
2023-09-10T14:40:01.735Z,42.8
2023-09-10T14:41:15.974Z,42.6
2023-09-10T14:42:29.228Z,42.4
2023-09-10T14:43:43.467Z,41.6
2023-09-10T14:44:57.706Z,40.3
2023-09-10T14:46:11.944Z,40.3
2023-09-10T14:47:26.183Z,40.4
2023-09-10T14:48:40.422Z,40.4
2023-09-10T14:49:54.660Z,40.6
2023-09-10T14:51:08.899Z,39.5
2023-09-10T14:52:23.137Z,40.2
2023-09-10T14:53:37.376Z,40.9
2023-09-10T14:54:51.615Z,41.2
2023-09-10T14:56:05.853Z,41.2
2023-09-10T14:57:20.092Z,40.9
2023-09-10T14:58:33.346Z,41.5
2023-09-10T14:59:47.585Z,41.3
2023-09-10T15:01:01.824Z,42.2
2023-09-10T15:02:16.062Z,43.2
2023-09-10T15:03:30.301Z,42.8
2023-09-10T15:04:44.539Z,42.9
2023-09-10T15:05:58.778Z,43.1
2023-09-10T15:07:13.017Z,42.6
2023-09-10T15:08:27.255Z,42.3
2023-09-10T15:09:41.494Z,42.4
2023-09-10T15:10:55.732Z,43.5
2023-09-10T15:12:09.971Z,43.4
2023-09-10T15:13:24.209Z,42.7
2023-09-10T15:14:37.464Z,43.1
2023-09-10T15:15:51.702Z,42.8
2023-09-10T15:17:05.941Z,41.6
2023-09-10T15:18:20.180Z,42.1
2023-09-10T15:19:34.418Z,41.9
2023-09-10T15:20:48.657Z,42.6
2023-09-10T15:22:02.895Z,43.6
2023-09-10T15:23:17.134Z,43.5
2023-09-10T15:24:31.372Z,42.8
2023-09-10T15:25:45.611Z,42.9
2023-09-10T15:26:59.849Z,41.3
2023-09-10T15:28:14.088Z,42
2023-09-10T15:29:28.326Z,42.2
2023-09-10T15:30:41.581Z,41.7
2023-09-10T15:31:55.820Z,41.9
2023-09-10T15:33:10.058Z,41.5
2023-09-10T15:34:24.296Z,41.7
2023-09-10T15:35:38.535Z,42.3
2023-09-10T15:36:52.773Z,42.2
2023-09-10T15:38:07.012Z,41.5
2023-09-10T15:39:21.251Z,41.1
2023-09-10T15:40:35.489Z,41.5
2023-09-10T15:41:49.728Z,42.5
2023-09-10T15:43:03.966Z,42.5
2023-09-10T15:44:18.204Z,43
2023-09-10T15:46:46.681Z,42.5
2023-09-10T15:47:59.936Z,42.1
2023-09-10T15:49:14.175Z,41.3
2023-09-10T15:50:28.413Z,41
2023-09-10T15:51:42.652Z,41.2
2023-09-10T15:52:56.890Z,40.5
2023-09-10T15:54:11.129Z,41
2023-09-10T15:55:25.367Z,41.6
2023-09-10T15:56:39.606Z,42.4
2023-09-10T15:57:53.844Z,42.2
2023-09-10T15:59:08.083Z,42.2
2023-09-10T16:00:22.321Z,41.8
2023-09-10T16:01:36.560Z,42
2023-09-10T16:02:50.798Z,42
2023-09-10T16:04:04.053Z,42.6
2023-09-10T16:05:18.292Z,43
2023-09-10T16:06:32.531Z,42.3
2023-09-10T16:07:46.769Z,42.5
2023-09-10T16:09:01.009Z,42.5
2023-09-10T16:10:15.247Z,43.6
2023-09-10T16:11:29.486Z,45.4
2023-09-10T16:12:43.709Z,44.8
2023-09-10T16:13:57.963Z,45
2023-09-10T16:15:12.201Z,44.1
2023-09-10T16:16:26.440Z,44.2
2023-09-10T16:17:40.678Z,44.9
2023-09-10T16:18:54.916Z,44.9
2023-09-10T16:20:08.171Z,45.2
2023-09-10T16:21:22.410Z,46.6
2023-09-10T16:22:36.648Z,48.9
2023-09-10T16:23:50.887Z,45.6
2023-09-10T16:25:05.125Z,45.9
2023-09-10T16:26:19.364Z,45.4
2023-09-10T16:27:33.602Z,45.3
2023-09-10T16:28:47.840Z,46.3
2023-09-10T16:30:02.079Z,46.9
2023-09-10T16:31:16.318Z,46.5
2023-09-10T16:32:30.556Z,44.9
2023-09-10T16:33:44.794Z,42.9
2023-09-10T16:34:59.033Z,44.1
2023-09-10T16:36:12.288Z,42.4
2023-09-10T16:37:26.526Z,42.7